Terminal Aerodrome Forecast
Issued by NWS

Home | Current Version | Previous Version | Text Only | Print | Product List | Glossary On
Versions: 1 2 3 4 5 6 7 8 9 10 11 12 13 14 15 16 17 18 19 20 21 22 23 24 25 26
000
FTUS45 KLKN 051124
TAFELY
TAF
KELY 051124Z 0512/0612 18010KT P6SM FEW070 SCT100 BKN200
     FM052000 31010KT P6SM VCTS SCT050CB BKN100
      TEMPO 0522/0524 VRB20G35KT BKN050CB OVC080
     FM060000 33010KT P6SM BKN070 OVC120
     FM060400 19008KT P6SM BKN070 OVC120=

USA.gov is the U.S. government's official web portal to all federal, state and local government web resources and services.